St-Hubert, Belgium
Current Conditions -  °F | °C
As of 11:25 PM on Monday 24 Nov 2014 (Local Time) from EBFS Reporting Station
Broken Clouds Broken Clouds  
Wind Chill: -1°   Ceiling: 22000
Heat Index:   Visibility: 6mi
Dew Point:   Wind: 6mph
Humidity: 93%   Direction: 60°ENE
Pressure: 30.3"   Gusts: NA
Location:  50.03°N, 5.4°E
Report Text: EBFS 242225Z 06005KT 9999 BKN220 02/01 Q1026 BLU
Loading
Personal Weather Stations






























Interactive Weather Map New forecast layout! Learn more

10-Day Weather Forecast

Advertisements
Track Severe Weather on mobile